sensor_id;sensor_type;location;lat;lon;timestamp;pressure;altitude;pressure_sealevel;temperature;humidity
66398;BME280;54877;51.504;3.894;2023-04-01T00:01:01;99309.94;;;12.36;72.77
66398;BME280;54877;51.504;3.894;2023-04-01T00:03:28;99314.00;;;12.40;72.86
66398;BME280;54877;51.504;3.894;2023-04-01T00:05:55;99314.34;;;12.47;72.41
66398;BME280;54877;51.504;3.894;2023-04-01T00:08:22;99315.91;;;12.49;72.49
66398;BME280;54877;51.504;3.894;2023-04-01T00:10:48;99320.75;;;12.44;72.58
66398;BME280;54877;51.504;3.894;2023-04-01T00:13:13;99312.19;;;12.41;72.70
66398;BME280;54877;51.504;3.894;2023-04-01T00:15:39;99319.81;;;12.45;72.62
66398;BME280;54877;51.504;3.894;2023-04-01T00:18:05;99320.75;;;12.44;72.61
66398;BME280;54877;51.504;3.894;2023-04-01T00:20:31;99315.84;;;12.40;73.00
66398;BME280;54877;51.504;3.894;2023-04-01T00:22:56;99318.97;;;12.45;72.58
66398;BME280;54877;51.504;3.894;2023-04-01T00:25:22;99322.06;;;12.50;72.49
66398;BME280;54877;51.504;3.894;2023-04-01T00:27:48;99328.22;;;12.50;72.41
66398;BME280;54877;51.504;3.894;2023-04-01T00:30:14;99327.53;;;12.37;72.82
66398;BME280;54877;51.504;3.894;2023-04-01T00:32:39;99334.28;;;12.41;72.87
66398;BME280;54877;51.504;3.894;2023-04-01T00:35:05;99330.91;;;12.39;72.84
66398;BME280;54877;51.504;3.894;2023-04-01T00:37:30;99337.78;;;12.42;72.92
66398;BME280;54877;51.504;3.894;2023-04-01T00:39:56;99338.13;;;12.48;72.66
66398;BME280;54877;51.504;3.894;2023-04-01T00:42:21;99337.41;;;12.46;72.78
66398;BME280;54877;51.504;3.894;2023-04-01T00:44:50;99349.00;;;12.45;72.83
66398;BME280;54877;51.504;3.894;2023-04-01T00:47:17;99343.34;;;12.38;72.99
66398;BME280;54877;51.504;3.894;2023-04-01T00:49:46;99344.25;;;12.49;72.72
66398;BME280;54877;51.504;3.894;2023-04-01T00:52:15;99343.44;;;12.48;72.83
66398;BME280;54877;51.504;3.894;2023-04-01T00:54:44;99350.94;;;12.32;72.97
66398;BME280;54877;51.504;3.894;2023-04-01T00:57:18;99350.44;;;12.38;72.71
66398;BME280;54877;51.504;3.894;2023-04-01T00:59:49;99350.19;;;12.41;72.62
66398;BME280;54877;51.504;3.894;2023-04-01T01:02:18;99351.94;;;12.20;72.99
66398;BME280;54877;51.504;3.894;2023-04-01T01:04:44;99351.47;;;12.15;73.44
66398;BME280;54877;51.504;3.894;2023-04-01T01:10:02;99365.91;;;12.22;73.43
66398;BME280;54877;51.504;3.894;2023-04-01T01:12:34;99360.13;;;12.17;73.42
66398;BME280;54877;51.504;3.894;2023-04-01T01:31:25;99385.44;;;11.99;73.39
66398;BME280;54877;51.504;3.894;2023-04-01T01:36:37;99392.34;;;11.90;73.57
66398;BME280;54877;51.504;3.894;2023-04-01T01:39:05;99396.06;;;11.99;73.50
66398;BME280;54877;51.504;3.894;2023-04-01T01:41:33;99391.84;;;11.96;73.78
66398;BME280;54877;51.504;3.894;2023-04-01T01:44:03;99394.16;;;12.01;73.46
66398;BME280;54877;51.504;3.894;2023-04-01T01:46:31;99401.00;;;11.92;73.53
66398;BME280;54877;51.504;3.894;2023-04-01T01:48:58;99396.31;;;11.96;73.58
66398;BME280;54877;51.504;3.894;2023-04-01T01:51:26;99401.63;;;11.96;73.53
66398;BME280;54877;51.504;3.894;2023-04-01T01:53:53;99402.09;;;12.01;73.42
66398;BME280;54877;51.504;3.894;2023-04-01T01:56:18;99410.06;;;12.01;73.34
66398;BME280;54877;51.504;3.894;2023-04-01T01:58:52;99412.47;;;11.93;73.55
66398;BME280;54877;51.504;3.894;2023-04-01T02:01:32;99426.44;;;11.95;73.54
66398;BME280;54877;51.504;3.894;2023-04-01T02:04:02;99421.84;;;11.86;73.46
66398;BME280;54877;51.504;3.894;2023-04-01T02:06:29;99434.16;;;11.87;73.66
66398;BME280;54877;51.504;3.894;2023-04-01T02:09:03;99435.25;;;11.84;73.41
66398;BME280;54877;51.504;3.894;2023-04-01T02:11:31;99436.78;;;11.75;73.89
66398;BME280;54877;51.504;3.894;2023-04-01T02:14:03;99445.31;;;11.68;74.13
66398;BME280;54877;51.504;3.894;2023-04-01T02:16:38;99447.34;;;11.64;74.31
66398;BME280;54877;51.504;3.894;2023-04-01T02:19:08;99443.03;;;11.74;73.84
66398;BME280;54877;51.504;3.894;2023-04-01T02:21:37;99450.75;;;11.77;73.92
66398;BME280;54877;51.504;3.894;2023-04-01T02:24:06;99452.47;;;11.78;73.88
66398;BME280;54877;51.504;3.894;2023-04-01T02:26:35;99460.16;;;11.70;74.12
66398;BME280;54877;51.504;3.894;2023-04-01T02:29:00;99462.69;;;11.72;74.10
66398;BME280;54877;51.504;3.894;2023-04-01T02:31:28;99469.69;;;11.73;74.08
66398;BME280;54877;51.504;3.894;2023-04-01T02:33:54;99464.81;;;11.67;74.35
66398;BME280;54877;51.504;3.894;2023-04-01T02:36:20;99463.53;;;11.72;74.04
66398;BME280;54877;51.504;3.894;2023-04-01T02:38:45;99468.59;;;11.75;74.04
66398;BME280;54877;51.504;3.894;2023-04-01T02:41:12;99466.66;;;11.77;73.78
66398;BME280;54877;51.504;3.894;2023-04-01T02:43:38;99473.44;;;11.82;73.63
66398;BME280;54877;51.504;3.894;2023-04-01T02:46:03;99473.91;;;11.75;73.75
66398;BME280;54877;51.504;3.894;2023-04-01T02:48:29;99483.47;;;11.65;74.11
66398;BME280;54877;51.504;3.894;2023-04-01T02:50:54;99479.47;;;11.60;74.19
66398;BME280;54877;51.504;3.894;2023-04-01T02:53:20;99482.97;;;11.60;74.27
66398;BME280;54877;51.504;3.894;2023-04-01T02:55:46;99484.91;;;11.58;74.10
66398;BME280;54877;51.504;3.894;2023-04-01T02:58:14;99493.09;;;11.55;74.58
66398;BME280;54877;51.504;3.894;2023-04-01T03:00:40;99495.00;;;11.53;74.46
66398;BME280;54877;51.504;3.894;2023-04-01T03:03:06;99486.34;;;11.51;74.21
66398;BME280;54877;51.504;3.894;2023-04-01T03:05:33;99493.53;;;11.49;74.44
66398;BME280;54877;51.504;3.894;2023-04-01T03:07:58;99498.59;;;11.52;74.73
66398;BME280;54877;51.504;3.894;2023-04-01T03:10:23;99495.47;;;11.47;74.54
66398;BME280;54877;51.504;3.894;2023-04-01T03:12:49;99505.34;;;11.45;74.59
66398;BME280;54877;51.504;3.894;2023-04-01T03:15:14;99506.50;;;11.41;74.71
66398;BME280;54877;51.504;3.894;2023-04-01T03:17:41;99520.03;;;11.49;74.43
66398;BME280;54877;51.504;3.894;2023-04-01T03:20:07;99518.38;;;11.48;74.53
66398;BME280;54877;51.504;3.894;2023-04-01T03:22:34;99514.16;;;11.46;74.63
66398;BME280;54877;51.504;3.894;2023-04-01T03:25:00;99526.81;;;11.53;74.49
66398;BME280;54877;51.504;3.894;2023-04-01T03:27:26;99533.66;;;11.45;74.40
66398;BME280;54877;51.504;3.894;2023-04-01T03:29:52;99539.78;;;11.45;74.59
66398;BME280;54877;51.504;3.894;2023-04-01T03:32:17;99542.16;;;11.37;74.87
66398;BME280;54877;51.504;3.894;2023-04-01T03:34:42;99541.72;;;11.43;74.89
66398;BME280;54877;51.504;3.894;2023-04-01T03:37:08;99545.94;;;11.46;74.50
66398;BME280;54877;51.504;3.894;2023-04-01T03:39:33;99551.19;;;11.35;74.84
66398;BME280;54877;51.504;3.894;2023-04-01T03:41:59;99548.69;;;11.44;74.93
66398;BME280;54877;51.504;3.894;2023-04-01T03:44:25;99552.06;;;11.46;74.64
66398;BME280;54877;51.504;3.894;2023-04-01T03:46:50;99559.28;;;11.44;74.77
66398;BME280;54877;51.504;3.894;2023-04-01T03:49:16;99562.59;;;11.35;75.27
66398;BME280;54877;51.504;3.894;2023-04-01T03:51:41;99563.81;;;11.31;74.94
66398;BME280;54877;51.504;3.894;2023-04-01T03:54:08;99566.81;;;11.14;75.50
66398;BME280;54877;51.504;3.894;2023-04-01T03:56:34;99575.47;;;11.29;75.45
66398;BME280;54877;51.504;3.894;2023-04-01T03:59:03;99575.63;;;11.38;75.25
66398;BME280;54877;51.504;3.894;2023-04-01T04:01:30;99584.16;;;11.31;75.22
66398;BME280;54877;51.504;3.894;2023-04-01T04:03:56;99582.13;;;11.34;75.23
66398;BME280;54877;51.504;3.894;2023-04-01T04:06:22;99589.00;;;11.37;75.04
66398;BME280;54877;51.504;3.894;2023-04-01T04:08:48;99589.09;;;11.35;74.99
66398;BME280;54877;51.504;3.894;2023-04-01T04:11:14;99600.03;;;11.31;74.97
66398;BME280;54877;51.504;3.894;2023-04-01T04:13:40;99593.53;;;11.47;74.68
66398;BME280;54877;51.504;3.894;2023-04-01T04:16:05;99604.50;;;11.30;74.90
66398;BME280;54877;51.504;3.894;2023-04-01T04:18:32;99610.50;;;11.45;74.63
66398;BME280;54877;51.504;3.894;2023-04-01T04:20:57;99609.66;;;11.44;74.82
66398;BME280;54877;51.504;3.894;2023-04-01T04:23:23;99608.91;;;11.42;74.71
66398;BME280;54877;51.504;3.894;2023-04-01T04:25:58;99613.72;;;11.37;74.94
66398;BME280;54877;51.504;3.894;2023-04-01T04:28:24;99616.38;;;11.37;74.91
66398;BME280;54877;51.504;3.894;2023-04-01T04:30:51;99622.50;;;11.38;74.91
66398;BME280;54877;51.504;3.894;2023-04-01T04:33:16;99615.50;;;11.37;74.81
66398;BME280;54877;51.504;3.894;2023-04-01T04:35:41;99623.97;;;11.42;74.62
66398;BME280;54877;51.504;3.894;2023-04-01T04:38:07;99627.41;;;11.31;74.64
66398;BME280;54877;51.504;3.894;2023-04-01T04:40:32;99628.56;;;11.27;74.66
66398;BME280;54877;51.504;3.894;2023-04-01T04:42:57;99629.91;;;11.33;74.67
66398;BME280;54877;51.504;3.894;2023-04-01T04:45:23;99629.50;;;11.39;74.45
66398;BME280;54877;51.504;3.894;2023-04-01T04:47:48;99633.13;;;11.38;74.63
66398;BME280;54877;51.504;3.894;2023-04-01T04:50:14;99637.06;;;11.32;74.78
66398;BME280;54877;51.504;3.894;2023-04-01T04:52:39;99645.81;;;11.45;74.35
66398;BME280;54877;51.504;3.894;2023-04-01T04:55:05;99644.31;;;11.41;74.51
66398;BME280;54877;51.504;3.894;2023-04-01T04:57:31;99653.97;;;11.42;74.54
66398;BME280;54877;51.504;3.894;2023-04-01T04:59:56;99662.13;;;11.39;74.56
66398;BME280;54877;51.504;3.894;2023-04-01T05:02:21;99663.84;;;11.40;74.50
66398;BME280;54877;51.504;3.894;2023-04-01T05:04:47;99656.63;;;11.42;74.52
66398;BME280;54877;51.504;3.894;2023-04-01T05:07:12;99665.81;;;11.49;74.28
66398;BME280;54877;51.504;3.894;2023-04-01T05:09:37;99671.88;;;11.51;73.99
66398;BME280;54877;51.504;3.894;2023-04-01T05:12:03;99680.25;;;11.45;74.40
66398;BME280;54877;51.504;3.894;2023-04-01T05:14:28;99682.69;;;11.48;74.45
66398;BME280;54877;51.504;3.894;2023-04-01T05:16:54;99679.06;;;11.49;74.23
66398;BME280;54877;51.504;3.894;2023-04-01T05:19:19;99691.59;;;11.47;74.50
66398;BME280;54877;51.504;3.894;2023-04-01T05:21:45;99688.81;;;11.49;74.06
66398;BME280;54877;51.504;3.894;2023-04-01T05:24:10;99695.72;;;11.51;74.25
66398;BME280;54877;51.504;3.894;2023-04-01T05:26:35;99695.59;;;11.53;74.17
66398;BME280;54877;51.504;3.894;2023-04-01T05:29:02;99696.31;;;11.67;73.70
66398;BME280;54877;51.504;3.894;2023-04-01T05:31:27;99702.16;;;11.60;74.09
66398;BME280;54877;51.504;3.894;2023-04-01T05:33:53;99698.22;;;11.65;73.81
66398;BME280;54877;51.504;3.894;2023-04-01T05:36:19;99706.84;;;11.56;73.93
66398;BME280;54877;51.504;3.894;2023-04-01T05:38:44;99707.34;;;11.61;74.08
66398;BME280;54877;51.504;3.894;2023-04-01T05:41:13;99716.03;;;11.63;73.80
66398;BME280;54877;51.504;3.894;2023-04-01T05:43:40;99718.91;;;11.60;73.89
66398;BME280;54877;51.504;3.894;2023-04-01T05:46:06;99717.44;;;11.69;73.60
66398;BME280;54877;51.504;3.894;2023-04-01T05:48:34;99726.03;;;11.72;73.67
66398;BME280;54877;51.504;3.894;2023-04-01T05:51:00;99731.53;;;11.69;73.81
66398;BME280;54877;51.504;3.894;2023-04-01T05:53:26;99727.84;;;11.47;74.23
66398;BME280;54877;51.504;3.894;2023-04-01T05:55:51;99733.44;;;11.55;74.11
66398;BME280;54877;51.504;3.894;2023-04-01T05:58:17;99728.03;;;11.56;74.01
66398;BME280;54877;51.504;3.894;2023-04-01T06:00:43;99741.81;;;11.61;73.85
66398;BME280;54877;51.504;3.894;2023-04-01T06:03:08;99745.31;;;11.74;73.61
66398;BME280;54877;51.504;3.894;2023-04-01T06:05:43;99751.66;;;11.85;73.24
66398;BME280;54877;51.504;3.894;2023-04-01T06:08:13;99749.84;;;11.85;73.30
66398;BME280;54877;51.504;3.894;2023-04-01T06:29:29;99789.09;;;11.67;73.82
66398;BME280;54877;51.504;3.894;2023-04-01T06:43:14;99801.88;;;11.99;73.14
66398;BME280;54877;51.504;3.894;2023-04-01T06:48:15;99805.59;;;11.96;73.05
66398;BME280;54877;51.504;3.894;2023-04-01T06:51:01;99811.56;;;12.00;72.63
66398;BME280;54877;51.504;3.894;2023-04-01T06:56:05;99821.00;;;11.91;72.79
66398;BME280;54877;51.504;3.894;2023-04-01T06:58:39;99820.91;;;11.93;73.14
66398;BME280;54877;51.504;3.894;2023-04-01T07:01:55;99831.75;;;11.90;73.17
66398;BME280;54877;51.504;3.894;2023-04-01T07:04:20;99827.16;;;11.92;72.89
66398;BME280;54877;51.504;3.894;2023-04-01T07:06:56;99831.06;;;11.99;72.66
66398;BME280;54877;51.504;3.894;2023-04-01T07:09:32;99832.78;;;12.00;72.72
66398;BME280;54877;51.504;3.894;2023-04-01T07:12:02;99837.00;;;12.02;72.68
66398;BME280;54877;51.504;3.894;2023-04-01T07:14:36;99843.81;;;11.94;72.71
66398;BME280;54877;51.504;3.894;2023-04-01T07:17:08;99847.44;;;11.93;72.80
66398;BME280;54877;51.504;3.894;2023-04-01T07:19:45;99850.00;;;11.82;72.91
66398;BME280;54877;51.504;3.894;2023-04-01T07:25:02;99857.00;;;11.70;73.19
66398;BME280;54877;51.504;3.894;2023-04-01T07:27:35;99857.00;;;11.70;73.25
66398;BME280;54877;51.504;3.894;2023-04-01T07:30:01;99861.66;;;11.92;72.96
66398;BME280;54877;51.504;3.894;2023-04-01T07:57:38;99912.75;;;11.68;72.99
66398;BME280;54877;51.504;3.894;2023-04-01T08:16:12;99936.84;;;11.91;72.53
66398;BME280;54877;51.504;3.894;2023-04-01T08:23:57;99937.34;;;11.58;72.63
66398;BME280;54877;51.504;3.894;2023-04-01T08:26:37;99945.00;;;11.62;73.11
66398;BME280;54877;51.504;3.894;2023-04-01T08:29:16;99953.13;;;11.73;73.04
66398;BME280;54877;51.504;3.894;2023-04-01T08:31:51;99952.47;;;11.83;72.81
66398;BME280;54877;51.504;3.894;2023-04-01T08:34:23;99956.91;;;11.82;73.05
66398;BME280;54877;51.504;3.894;2023-04-01T08:36:58;99960.63;;;11.79;72.80
66398;BME280;54877;51.504;3.894;2023-04-01T08:39:34;99964.78;;;11.84;72.73
66398;BME280;54877;51.504;3.894;2023-04-01T08:45:10;99971.13;;;11.94;72.33
66398;BME280;54877;51.504;3.894;2023-04-01T08:50:49;99979.19;;;11.79;72.93
66398;BME280;54877;51.504;3.894;2023-04-01T08:58:52;99989.59;;;11.83;72.73
66398;BME280;54877;51.504;3.894;2023-04-01T09:20:42;100005.28;;;11.86;72.98
66398;BME280;54877;51.504;3.894;2023-04-01T09:23:23;100004.47;;;11.98;72.86
66398;BME280;54877;51.504;3.894;2023-04-01T09:29:16;100006.59;;;11.93;72.99
66398;BME280;54877;51.504;3.894;2023-04-01T09:31:52;100020.38;;;11.98;72.54
66398;BME280;54877;51.504;3.894;2023-04-01T09:34:44;100018.38;;;12.01;72.66
66398;BME280;54877;51.504;3.894;2023-04-01T09:48:20;100028.97;;;12.26;72.04
66398;BME280;54877;51.504;3.894;2023-04-01T09:51:30;100033.34;;;12.27;72.07
66398;BME280;54877;51.504;3.894;2023-04-01T10:25:10;100063.59;;;12.25;71.72
66398;BME280;54877;51.504;3.894;2023-04-01T10:27:50;100057.75;;;12.20;71.79
66398;BME280;54877;51.504;3.894;2023-04-01T10:48:15;100076.00;;;12.62;71.18
66398;BME280;54877;51.504;3.894;2023-04-01T10:51:09;100083.84;;;12.51;71.37
66398;BME280;54877;51.504;3.894;2023-04-01T10:54:02;100088.13;;;12.54;70.83
66398;BME280;54877;51.504;3.894;2023-04-01T10:57:01;100097.78;;;12.55;71.16
66398;BME280;54877;51.504;3.894;2023-04-01T11:53:00;100145.91;;;12.50;71.34
66398;BME280;54877;51.504;3.894;2023-04-01T11:58:27;100164.75;;;12.20;71.00
66398;BME280;54877;51.504;3.894;2023-04-01T12:12:34;100179.69;;;12.09;71.04
66398;BME280;54877;51.504;3.894;2023-04-01T12:17:56;100185.28;;;12.04;71.73
66398;BME280;54877;51.504;3.894;2023-04-01T12:29:07;100204.44;;;12.09;71.82
66398;BME280;54877;51.504;3.894;2023-04-01T12:37:20;100207.66;;;12.27;71.63
66398;BME280;54877;51.504;3.894;2023-04-01T12:45:38;100205.97;;;12.38;70.67
66398;BME280;54877;51.504;3.894;2023-04-01T12:59:14;100238.09;;;12.61;70.46
66398;BME280;54877;51.504;3.894;2023-04-01T13:02:00;100237.97;;;12.62;70.42
66398;BME280;54877;51.504;3.894;2023-04-01T13:04:33;100245.94;;;12.62;70.21
66398;BME280;54877;51.504;3.894;2023-04-01T13:07:31;100243.22;;;12.64;70.19
66398;BME280;54877;51.504;3.894;2023-04-01T13:12:56;100249.38;;;12.64;69.85
66398;BME280;54877;51.504;3.894;2023-04-01T13:15:37;100250.63;;;12.59;69.90
66398;BME280;54877;51.504;3.894;2023-04-01T13:18:24;100254.69;;;12.64;69.91
66398;BME280;54877;51.504;3.894;2023-04-01T13:21:15;100257.44;;;12.63;69.82
66398;BME280;54877;51.504;3.894;2023-04-01T13:23:54;100259.56;;;12.70;69.84
66398;BME280;54877;51.504;3.894;2023-04-01T13:35:29;100267.03;;;12.38;69.78
66398;BME280;54877;51.504;3.894;2023-04-01T13:41:12;100274.00;;;12.54;70.22
66398;BME280;54877;51.504;3.894;2023-04-01T14:00:24;100289.66;;;12.31;70.85
66398;BME280;54877;51.504;3.894;2023-04-01T14:11:32;100295.53;;;12.49;70.94
66398;BME280;54877;51.504;3.894;2023-04-01T14:25:30;100307.53;;;12.55;71.20
66398;BME280;54877;51.504;3.894;2023-04-01T14:41:56;100320.09;;;12.26;71.33
66398;BME280;54877;51.504;3.894;2023-04-01T14:50:25;100336.84;;;12.26;72.19
66398;BME280;54877;51.504;3.894;2023-04-01T14:55:29;100334.66;;;12.33;72.11
66398;BME280;54877;51.504;3.894;2023-04-01T15:00:55;100345.56;;;12.28;72.29
66398;BME280;54877;51.504;3.894;2023-04-01T15:22:26;100363.38;;;12.26;72.94
66398;BME280;54877;51.504;3.894;2023-04-01T15:47:44;100394.63;;;11.81;72.60
66398;BME280;54877;51.504;3.894;2023-04-01T15:58:53;100414.31;;;11.91;72.74
66398;BME280;54877;51.504;3.894;2023-04-01T16:07:10;100426.25;;;11.84;72.38
66398;BME280;54877;51.504;3.894;2023-04-01T16:23:50;100450.44;;;11.63;73.04
66398;BME280;54877;51.504;3.894;2023-04-01T16:26:24;100459.91;;;11.53;73.29
66398;BME280;54877;51.504;3.894;2023-04-01T16:29:22;100456.59;;;11.64;73.42
66398;BME280;54877;51.504;3.894;2023-04-01T16:35:40;100471.84;;;11.60;72.68
66398;BME280;54877;51.504;3.894;2023-04-01T16:38:18;100479.31;;;11.54;72.83
66398;BME280;54877;51.504;3.894;2023-04-01T16:43:52;100473.88;;;11.41;73.71
66398;BME280;54877;51.504;3.894;2023-04-01T16:51:41;100493.00;;;11.32;73.87
66398;BME280;54877;51.504;3.894;2023-04-01T16:54:26;100494.84;;;11.30;73.87
66398;BME280;54877;51.504;3.894;2023-04-01T16:57:12;100504.41;;;11.33;73.94
66398;BME280;54877;51.504;3.894;2023-04-01T17:00:14;100506.31;;;11.31;73.86
66398;BME280;54877;51.504;3.894;2023-04-01T17:02:49;100516.91;;;11.31;73.92
66398;BME280;54877;51.504;3.894;2023-04-01T17:05:35;100524.78;;;11.32;73.69
66398;BME280;54877;51.504;3.894;2023-04-01T17:08:16;100525.13;;;11.26;73.93
66398;BME280;54877;51.504;3.894;2023-04-01T17:11:06;100525.78;;;11.30;74.19
66398;BME280;54877;51.504;3.894;2023-04-01T17:13:46;100534.13;;;11.24;74.27
66398;BME280;54877;51.504;3.894;2023-04-01T17:16:24;100536.41;;;11.30;74.01
66398;BME280;54877;51.504;3.894;2023-04-01T17:30:33;100555.31;;;11.24;73.47
66398;BME280;54877;51.504;3.894;2023-04-01T17:38:48;100573.75;;;11.41;72.94
66398;BME280;54877;51.504;3.894;2023-04-01T17:41:36;100570.44;;;11.37;72.86
66398;BME280;54877;51.504;3.894;2023-04-01T17:44:44;100585.53;;;11.35;73.04
66398;BME280;54877;51.504;3.894;2023-04-01T17:50:20;100586.75;;;11.14;74.02
66398;BME280;54877;51.504;3.894;2023-04-01T17:58:28;100603.78;;;11.26;73.31
66398;BME280;54877;51.504;3.894;2023-04-01T18:17:58;100648.84;;;11.10;73.96
66398;BME280;54877;51.504;3.894;2023-04-01T18:20:31;100639.50;;;11.18;73.91
66398;BME280;54877;51.504;3.894;2023-04-01T18:26:14;100644.91;;;11.17;74.02
66398;BME280;54877;51.504;3.894;2023-04-01T18:31:23;100668.84;;;11.31;73.63
66398;BME280;54877;51.504;3.894;2023-04-01T18:37:12;100682.41;;;11.25;73.66
66398;BME280;54877;51.504;3.894;2023-04-01T18:39:33;100687.66;;;11.42;73.53
66398;BME280;54877;51.504;3.894;2023-04-01T18:44:53;100692.84;;;11.44;73.27
66398;BME280;54877;51.504;3.894;2023-04-01T18:47:30;100695.94;;;11.36;73.67
66398;BME280;54877;51.504;3.894;2023-04-01T18:53:10;100712.09;;;11.47;73.47
66398;BME280;54877;51.504;3.894;2023-04-01T18:55:59;100720.38;;;11.41;73.50
66398;BME280;54877;51.504;3.894;2023-04-01T18:58:46;100721.69;;;11.50;73.30
66398;BME280;54877;51.504;3.894;2023-04-01T19:01:28;100732.03;;;11.39;73.52
66398;BME280;54877;51.504;3.894;2023-04-01T19:07:57;100735.97;;;11.47;73.51
66398;BME280;54877;51.504;3.894;2023-04-01T19:16:00;100755.44;;;11.46;73.38
66398;BME280;54877;51.504;3.894;2023-04-01T19:18:38;100762.31;;;11.50;73.22
66398;BME280;54877;51.504;3.894;2023-04-01T19:21:42;100765.13;;;11.47;73.47
66398;BME280;54877;51.504;3.894;2023-04-01T19:24:50;100766.69;;;11.51;73.42
66398;BME280;54877;51.504;3.894;2023-04-01T19:38:01;100786.00;;;11.53;73.30
66398;BME280;54877;51.504;3.894;2023-04-01T19:40:46;100795.31;;;11.60;72.83
66398;BME280;54877;51.504;3.894;2023-04-01T20:00:26;100828.66;;;11.49;73.04
66398;BME280;54877;51.504;3.894;2023-04-01T20:05:28;100846.81;;;11.56;72.69
66398;BME280;54877;51.504;3.894;2023-04-01T20:08:07;100850.09;;;11.61;72.80
66398;BME280;54877;51.504;3.894;2023-04-01T20:10:46;100847.34;;;11.63;72.68
66398;BME280;54877;51.504;3.894;2023-04-01T20:16:08;100860.84;;;11.58;72.39
66398;BME280;54877;51.504;3.894;2023-04-01T20:18:37;100869.78;;;11.40;72.87
66398;BME280;54877;51.504;3.894;2023-04-01T20:26:39;100884.59;;;11.44;72.58
66398;BME280;54877;51.504;3.894;2023-04-01T20:31:40;100898.59;;;11.46;72.52
66398;BME280;54877;51.504;3.894;2023-04-01T20:51:04;100937.91;;;11.38;72.61
66398;BME280;54877;51.504;3.894;2023-04-01T20:58:45;100947.03;;;11.50;72.17
66398;BME280;54877;51.504;3.894;2023-04-01T21:01:33;100951.31;;;11.52;72.17
66398;BME280;54877;51.504;3.894;2023-04-01T21:10:48;100971.06;;;11.47;72.33
66398;BME280;54877;51.504;3.894;2023-04-01T21:16:22;100981.66;;;11.64;71.89
66398;BME280;54877;51.504;3.894;2023-04-01T21:21:59;100982.97;;;11.55;71.76
66398;BME280;54877;51.504;3.894;2023-04-01T21:33:07;101011.91;;;11.60;71.62
66398;BME280;54877;51.504;3.894;2023-04-01T21:38:48;101020.84;;;11.76;71.25
66398;BME280;54877;51.504;3.894;2023-04-01T21:49:35;101035.56;;;11.64;71.50
66398;BME280;54877;51.504;3.894;2023-04-01T22:03:42;101059.97;;;11.54;70.73
66398;BME280;54877;51.504;3.894;2023-04-01T22:09:03;101068.06;;;11.51;70.82
66398;BME280;54877;51.504;3.894;2023-04-01T22:11:47;101069.00;;;11.50;70.93
66398;BME280;54877;51.504;3.894;2023-04-01T22:17:12;101078.84;;;11.48;70.70
66398;BME280;54877;51.504;3.894;2023-04-01T22:19:59;101088.00;;;11.41;70.89
66398;BME280;54877;51.504;3.894;2023-04-01T22:25:14;101098.53;;;11.42;70.93
66398;BME280;54877;51.504;3.894;2023-04-01T22:27:52;101102.84;;;11.45;70.90
66398;BME280;54877;51.504;3.894;2023-04-01T22:30:23;101104.78;;;11.41;70.63
66398;BME280;54877;51.504;3.894;2023-04-01T22:35:46;101119.63;;;11.45;70.46
66398;BME280;54877;51.504;3.894;2023-04-01T22:44:06;101129.25;;;11.29;70.65
66398;BME280;54877;51.504;3.894;2023-04-01T22:47:01;101127.44;;;11.30;70.58
66398;BME280;54877;51.504;3.894;2023-04-01T22:49:38;101149.59;;;11.29;70.46
66398;BME280;54877;51.504;3.894;2023-04-01T22:52:33;101143.41;;;11.28;70.61
66398;BME280;54877;51.504;3.894;2023-04-01T22:55:15;101142.41;;;11.31;70.09
66398;BME280;54877;51.504;3.894;2023-04-01T22:57:46;101152.16;;;11.11;70.36
66398;BME280;54877;51.504;3.894;2023-04-01T23:03:22;101162.19;;;11.05;70.06
66398;BME280;54877;51.504;3.894;2023-04-01T23:11:18;101172.34;;;10.95;70.19
66398;BME280;54877;51.504;3.894;2023-04-01T23:13:55;101185.50;;;10.97;70.44
66398;BME280;54877;51.504;3.894;2023-04-01T23:16:25;101190.81;;;10.97;70.54
66398;BME280;54877;51.504;3.894;2023-04-01T23:19:06;101196.94;;;10.99;70.29
66398;BME280;54877;51.504;3.894;2023-04-01T23:21:42;101201.13;;;11.03;70.47
66398;BME280;54877;51.504;3.894;2023-04-01T23:27:20;101202.63;;;10.90;70.63
66398;BME280;54877;51.504;3.894;2023-04-01T23:29:55;101210.19;;;10.99;70.46
66398;BME280;54877;51.504;3.894;2023-04-01T23:32:24;101214.38;;;11.03;70.56
66398;BME280;54877;51.504;3.894;2023-04-01T23:34:55;101215.47;;;10.99;70.66
66398;BME280;54877;51.504;3.894;2023-04-01T23:37:23;101220.34;;;11.08;70.32
66398;BME280;54877;51.504;3.894;2023-04-01T23:39:50;101225.31;;;11.15;70.24
66398;BME280;54877;51.504;3.894;2023-04-01T23:42:19;101232.25;;;11.18;70.18
66398;BME280;54877;51.504;3.894;2023-04-01T23:44:49;101235.31;;;11.09;70.00
66398;BME280;54877;51.504;3.894;2023-04-01T23:47:21;101241.53;;;11.08;69.99
66398;BME280;54877;51.504;3.894;2023-04-01T23:49:56;101242.88;;;10.98;69.86
66398;BME280;54877;51.504;3.894;2023-04-01T23:52:27;101247.81;;;10.87;69.99
66398;BME280;54877;51.504;3.894;2023-04-01T23:57:30;101252.97;;;10.90;70.41
